sensor_id;sensor_type;location;lat;lon;timestamp;P1;durP1;ratioP1;P2;durP2;ratioP2
9807;SDS011;4943;52.550;13.462;2023-04-08T00:00:28;10.70;;;7.77;;
9807;SDS011;4943;52.550;13.462;2023-04-08T00:02:56;12.07;;;8.00;;
9807;SDS011;4943;52.550;13.462;2023-04-08T00:05:25;13.73;;;8.10;;
9807;SDS011;4943;52.550;13.462;2023-04-08T00:07:53;10.87;;;7.63;;
9807;SDS011;4943;52.550;13.462;2023-04-08T00:10:21;11.73;;;8.47;;
9807;SDS011;4943;52.550;13.462;2023-04-08T00:12:50;12.40;;;8.20;;
9807;SDS011;4943;52.550;13.462;2023-04-08T00:15:18;12.33;;;8.57;;
9807;SDS011;4943;52.550;13.462;2023-04-08T00:17:46;12.97;;;8.13;;
9807;SDS011;4943;52.550;13.462;2023-04-08T00:20:14;14.37;;;9.23;;
9807;SDS011;4943;52.550;13.462;2023-04-08T00:22:43;17.53;;;9.90;;
9807;SDS011;4943;52.550;13.462;2023-04-08T00:25:12;15.17;;;8.53;;
9807;SDS011;4943;52.550;13.462;2023-04-08T00:27:40;14.43;;;9.33;;
9807;SDS011;4943;52.550;13.462;2023-04-08T00:30:08;13.83;;;8.83;;
9807;SDS011;4943;52.550;13.462;2023-04-08T00:32:37;17.30;;;10.43;;
9807;SDS011;4943;52.550;13.462;2023-04-08T00:35:05;17.80;;;11.20;;
9807;SDS011;4943;52.550;13.462;2023-04-08T00:37:33;19.83;;;10.40;;
9807;SDS011;4943;52.550;13.462;2023-04-08T00:40:04;14.33;;;9.53;;
9807;SDS011;4943;52.550;13.462;2023-04-08T00:42:32;16.63;;;9.43;;
9807;SDS011;4943;52.550;13.462;2023-04-08T00:45:00;16.70;;;10.40;;
9807;SDS011;4943;52.550;13.462;2023-04-08T00:47:29;19.10;;;10.37;;
9807;SDS011;4943;52.550;13.462;2023-04-08T00:49:57;15.13;;;10.23;;
9807;SDS011;4943;52.550;13.462;2023-04-08T00:52:25;18.87;;;11.03;;
9807;SDS011;4943;52.550;13.462;2023-04-08T00:54:54;18.63;;;11.47;;
9807;SDS011;4943;52.550;13.462;2023-04-08T00:57:23;17.57;;;10.60;;
9807;SDS011;4943;52.550;13.462;2023-04-08T00:59:51;15.83;;;10.77;;
9807;SDS011;4943;52.550;13.462;2023-04-08T01:02:21;17.47;;;10.80;;
9807;SDS011;4943;52.550;13.462;2023-04-08T01:04:59;18.67;;;10.40;;
9807;SDS011;4943;52.550;13.462;2023-04-08T01:07:30;17.93;;;10.43;;
9807;SDS011;4943;52.550;13.462;2023-04-08T01:10:02;18.03;;;9.93;;
9807;SDS011;4943;52.550;13.462;2023-04-08T01:12:36;18.97;;;11.93;;
9807;SDS011;4943;52.550;13.462;2023-04-08T01:15:09;21.47;;;11.63;;
9807;SDS011;4943;52.550;13.462;2023-04-08T01:17:38;18.40;;;11.10;;
9807;SDS011;4943;52.550;13.462;2023-04-08T01:20:08;17.90;;;10.47;;
9807;SDS011;4943;52.550;13.462;2023-04-08T01:22:40;17.53;;;10.63;;
9807;SDS011;4943;52.550;13.462;2023-04-08T01:25:20;19.23;;;11.37;;
9807;SDS011;4943;52.550;13.462;2023-04-08T01:27:51;16.90;;;10.80;;
9807;SDS011;4943;52.550;13.462;2023-04-08T01:30:22;19.37;;;11.00;;
9807;SDS011;4943;52.550;13.462;2023-04-08T01:32:52;21.20;;;12.27;;
9807;SDS011;4943;52.550;13.462;2023-04-08T01:35:22;18.00;;;11.83;;
9807;SDS011;4943;52.550;13.462;2023-04-08T01:37:51;21.20;;;12.73;;
9807;SDS011;4943;52.550;13.462;2023-04-08T01:40:20;20.10;;;12.30;;
9807;SDS011;4943;52.550;13.462;2023-04-08T01:42:48;19.63;;;11.50;;
9807;SDS011;4943;52.550;13.462;2023-04-08T01:45:20;22.77;;;11.67;;
9807;SDS011;4943;52.550;13.462;2023-04-08T01:47:49;19.57;;;11.70;;
9807;SDS011;4943;52.550;13.462;2023-04-08T01:50:19;20.53;;;11.67;;
9807;SDS011;4943;52.550;13.462;2023-04-08T01:52:48;18.13;;;11.60;;
9807;SDS011;4943;52.550;13.462;2023-04-08T01:55:19;20.37;;;11.97;;
9807;SDS011;4943;52.550;13.462;2023-04-08T01:57:48;19.50;;;11.97;;
9807;SDS011;4943;52.550;13.462;2023-04-08T02:00:19;20.30;;;11.53;;
9807;SDS011;4943;52.550;13.462;2023-04-08T02:02:51;21.83;;;11.43;;
9807;SDS011;4943;52.550;13.462;2023-04-08T02:05:21;22.90;;;12.17;;
9807;SDS011;4943;52.550;13.462;2023-04-08T02:07:49;19.37;;;12.57;;
9807;SDS011;4943;52.550;13.462;2023-04-08T02:10:17;18.67;;;11.20;;
9807;SDS011;4943;52.550;13.462;2023-04-08T02:12:45;19.47;;;11.73;;
9807;SDS011;4943;52.550;13.462;2023-04-08T02:15:14;19.80;;;11.73;;
9807;SDS011;4943;52.550;13.462;2023-04-08T02:17:45;18.73;;;11.50;;
9807;SDS011;4943;52.550;13.462;2023-04-08T02:20:16;19.67;;;12.60;;
9807;SDS011;4943;52.550;13.462;2023-04-08T02:22:47;21.87;;;11.57;;
9807;SDS011;4943;52.550;13.462;2023-04-08T02:25:17;17.57;;;10.87;;
9807;SDS011;4943;52.550;13.462;2023-04-08T02:27:49;21.57;;;11.97;;
9807;SDS011;4943;52.550;13.462;2023-04-08T02:30:19;18.97;;;11.20;;
9807;SDS011;4943;52.550;13.462;2023-04-08T02:32:50;20.17;;;11.90;;
9807;SDS011;4943;52.550;13.462;2023-04-08T02:35:20;22.03;;;11.97;;
9807;SDS011;4943;52.550;13.462;2023-04-08T02:37:49;20.03;;;11.33;;
9807;SDS011;4943;52.550;13.462;2023-04-08T02:40:24;20.43;;;11.20;;
9807;SDS011;4943;52.550;13.462;2023-04-08T02:42:53;20.53;;;11.17;;
9807;SDS011;4943;52.550;13.462;2023-04-08T02:45:21;17.93;;;11.47;;
9807;SDS011;4943;52.550;13.462;2023-04-08T02:47:54;20.20;;;11.73;;
9807;SDS011;4943;52.550;13.462;2023-04-08T02:50:22;20.50;;;11.33;;
9807;SDS011;4943;52.550;13.462;2023-04-08T02:52:50;20.63;;;12.50;;
9807;SDS011;4943;52.550;13.462;2023-04-08T02:55:18;20.20;;;11.67;;
9807;SDS011;4943;52.550;13.462;2023-04-08T02:57:47;19.97;;;11.43;;
9807;SDS011;4943;52.550;13.462;2023-04-08T03:00:15;19.97;;;11.37;;
9807;SDS011;4943;52.550;13.462;2023-04-08T03:02:43;23.37;;;12.30;;
9807;SDS011;4943;52.550;13.462;2023-04-08T03:05:13;19.80;;;11.57;;
9807;SDS011;4943;52.550;13.462;2023-04-08T03:07:42;23.40;;;12.83;;
9807;SDS011;4943;52.550;13.462;2023-04-08T03:10:10;19.80;;;11.80;;
9807;SDS011;4943;52.550;13.462;2023-04-08T03:12:39;20.63;;;12.10;;
9807;SDS011;4943;52.550;13.462;2023-04-08T03:15:07;25.57;;;13.43;;
9807;SDS011;4943;52.550;13.462;2023-04-08T03:17:36;27.83;;;12.80;;
9807;SDS011;4943;52.550;13.462;2023-04-08T03:20:04;20.77;;;11.70;;
9807;SDS011;4943;52.550;13.462;2023-04-08T03:22:34;25.00;;;13.13;;
9807;SDS011;4943;52.550;13.462;2023-04-08T03:25:03;20.87;;;12.97;;
9807;SDS011;4943;52.550;13.462;2023-04-08T03:27:33;20.80;;;12.17;;
9807;SDS011;4943;52.550;13.462;2023-04-08T03:30:01;26.00;;;12.63;;
9807;SDS011;4943;52.550;13.462;2023-04-08T03:32:30;22.60;;;13.30;;
9807;SDS011;4943;52.550;13.462;2023-04-08T03:34:58;21.80;;;12.67;;
9807;SDS011;4943;52.550;13.462;2023-04-08T03:37:27;24.17;;;13.17;;
9807;SDS011;4943;52.550;13.462;2023-04-08T03:39:56;19.93;;;11.87;;
9807;SDS011;4943;52.550;13.462;2023-04-08T03:42:24;24.83;;;13.00;;
9807;SDS011;4943;52.550;13.462;2023-04-08T03:44:52;20.80;;;12.73;;
9807;SDS011;4943;52.550;13.462;2023-04-08T03:47:20;22.70;;;13.43;;
9807;SDS011;4943;52.550;13.462;2023-04-08T03:49:48;24.80;;;13.10;;
9807;SDS011;4943;52.550;13.462;2023-04-08T03:52:16;23.70;;;13.17;;
9807;SDS011;4943;52.550;13.462;2023-04-08T03:54:44;26.97;;;14.17;;
9807;SDS011;4943;52.550;13.462;2023-04-08T03:57:13;20.57;;;12.93;;
9807;SDS011;4943;52.550;13.462;2023-04-08T03:59:41;25.43;;;13.73;;
9807;SDS011;4943;52.550;13.462;2023-04-08T04:02:09;25.27;;;13.40;;
9807;SDS011;4943;52.550;13.462;2023-04-08T04:04:37;28.83;;;13.83;;
9807;SDS011;4943;52.550;13.462;2023-04-08T04:07:05;26.67;;;13.70;;
9807;SDS011;4943;52.550;13.462;2023-04-08T04:09:33;23.47;;;13.53;;
9807;SDS011;4943;52.550;13.462;2023-04-08T04:12:01;23.60;;;13.70;;
9807;SDS011;4943;52.550;13.462;2023-04-08T04:14:31;28.53;;;14.60;;
9807;SDS011;4943;52.550;13.462;2023-04-08T04:16:59;25.03;;;13.97;;
9807;SDS011;4943;52.550;13.462;2023-04-08T04:19:28;23.80;;;12.97;;
9807;SDS011;4943;52.550;13.462;2023-04-08T04:21:57;24.80;;;13.87;;
9807;SDS011;4943;52.550;13.462;2023-04-08T04:24:25;26.70;;;14.33;;
9807;SDS011;4943;52.550;13.462;2023-04-08T04:26:53;24.83;;;13.83;;
9807;SDS011;4943;52.550;13.462;2023-04-08T04:29:21;22.07;;;14.00;;
9807;SDS011;4943;52.550;13.462;2023-04-08T04:31:51;24.10;;;13.90;;
9807;SDS011;4943;52.550;13.462;2023-04-08T04:34:19;24.27;;;13.60;;
9807;SDS011;4943;52.550;13.462;2023-04-08T04:36:47;24.67;;;13.07;;
9807;SDS011;4943;52.550;13.462;2023-04-08T04:39:15;23.33;;;13.20;;
9807;SDS011;4943;52.550;13.462;2023-04-08T04:41:43;23.03;;;13.37;;
9807;SDS011;4943;52.550;13.462;2023-04-08T04:44:12;21.70;;;13.10;;
9807;SDS011;4943;52.550;13.462;2023-04-08T04:46:41;24.07;;;13.87;;
9807;SDS011;4943;52.550;13.462;2023-04-08T04:49:10;24.50;;;13.93;;
9807;SDS011;4943;52.550;13.462;2023-04-08T04:51:38;24.23;;;13.80;;
9807;SDS011;4943;52.550;13.462;2023-04-08T04:54:06;24.23;;;14.20;;
9807;SDS011;4943;52.550;13.462;2023-04-08T04:56:34;25.30;;;14.27;;
9807;SDS011;4943;52.550;13.462;2023-04-08T04:59:05;22.37;;;13.13;;
9807;SDS011;4943;52.550;13.462;2023-04-08T05:01:33;25.87;;;13.87;;
9807;SDS011;4943;52.550;13.462;2023-04-08T05:04:02;29.93;;;15.20;;
9807;SDS011;4943;52.550;13.462;2023-04-08T05:06:31;23.33;;;13.83;;
9807;SDS011;4943;52.550;13.462;2023-04-08T05:08:59;26.27;;;13.70;;
9807;SDS011;4943;52.550;13.462;2023-04-08T05:11:27;25.37;;;15.47;;
9807;SDS011;4943;52.550;13.462;2023-04-08T05:13:55;28.50;;;14.50;;
9807;SDS011;4943;52.550;13.462;2023-04-08T05:16:23;30.77;;;15.20;;
9807;SDS011;4943;52.550;13.462;2023-04-08T05:18:51;25.70;;;13.93;;
9807;SDS011;4943;52.550;13.462;2023-04-08T05:21:19;26.93;;;15.33;;
9807;SDS011;4943;52.550;13.462;2023-04-08T05:23:48;72.17;;;53.27;;
9807;SDS011;4943;52.550;13.462;2023-04-08T05:26:18;62.73;;;46.17;;
9807;SDS011;4943;52.550;13.462;2023-04-08T05:28:46;101.60;;;60.33;;
9807;SDS011;4943;52.550;13.462;2023-04-08T05:31:15;100.10;;;58.87;;
9807;SDS011;4943;52.550;13.462;2023-04-08T05:33:43;96.90;;;57.17;;
9807;SDS011;4943;52.550;13.462;2023-04-08T05:36:12;61.73;;;42.87;;
9807;SDS011;4943;52.550;13.462;2023-04-08T05:38:40;68.60;;;48.43;;
9807;SDS011;4943;52.550;13.462;2023-04-08T05:41:10;71.23;;;47.80;;
9807;SDS011;4943;52.550;13.462;2023-04-08T05:43:38;70.93;;;46.13;;
9807;SDS011;4943;52.550;13.462;2023-04-08T05:46:06;104.47;;;59.87;;
9807;SDS011;4943;52.550;13.462;2023-04-08T05:48:35;102.50;;;58.40;;
9807;SDS011;4943;52.550;13.462;2023-04-08T05:51:03;97.30;;;53.13;;
9807;SDS011;4943;52.550;13.462;2023-04-08T05:53:31;74.20;;;44.20;;
9807;SDS011;4943;52.550;13.462;2023-04-08T05:55:59;70.43;;;46.70;;
9807;SDS011;4943;52.550;13.462;2023-04-08T05:58:29;77.63;;;47.93;;
9807;SDS011;4943;52.550;13.462;2023-04-08T06:00:57;77.97;;;48.43;;
9807;SDS011;4943;52.550;13.462;2023-04-08T06:03:25;77.27;;;50.07;;
9807;SDS011;4943;52.550;13.462;2023-04-08T06:05:53;72.10;;;48.17;;
9807;SDS011;4943;52.550;13.462;2023-04-08T06:08:21;56.23;;;39.80;;
9807;SDS011;4943;52.550;13.462;2023-04-08T06:10:50;63.20;;;43.57;;
9807;SDS011;4943;52.550;13.462;2023-04-08T06:13:18;57.33;;;40.73;;
9807;SDS011;4943;52.550;13.462;2023-04-08T06:15:48;93.20;;;57.10;;
9807;SDS011;4943;52.550;13.462;2023-04-08T06:18:16;95.00;;;58.43;;
9807;SDS011;4943;52.550;13.462;2023-04-08T06:20:44;94.20;;;56.77;;
9807;SDS011;4943;52.550;13.462;2023-04-08T06:23:12;105.10;;;58.13;;
9807;SDS011;4943;52.550;13.462;2023-04-08T06:25:40;94.03;;;56.03;;
9807;SDS011;4943;52.550;13.462;2023-04-08T06:28:08;85.63;;;55.93;;
9807;SDS011;4943;52.550;13.462;2023-04-08T06:30:36;74.97;;;50.40;;
9807;SDS011;4943;52.550;13.462;2023-04-08T06:33:06;65.47;;;45.50;;
9807;SDS011;4943;52.550;13.462;2023-04-08T06:35:34;72.33;;;47.97;;
9807;SDS011;4943;52.550;13.462;2023-04-08T06:38:03;123.13;;;64.40;;
9807;SDS011;4943;52.550;13.462;2023-04-08T06:40:31;129.60;;;67.40;;
9807;SDS011;4943;52.550;13.462;2023-04-08T06:42:59;139.87;;;72.43;;
9807;SDS011;4943;52.550;13.462;2023-04-08T06:45:27;138.70;;;69.67;;
9807;SDS011;4943;52.550;13.462;2023-04-08T06:47:55;141.10;;;70.73;;
9807;SDS011;4943;52.550;13.462;2023-04-08T06:50:24;161.93;;;73.20;;
9807;SDS011;4943;52.550;13.462;2023-04-08T06:52:52;158.20;;;76.80;;
9807;SDS011;4943;52.550;13.462;2023-04-08T06:55:21;160.00;;;74.60;;
9807;SDS011;4943;52.550;13.462;2023-04-08T06:57:49;153.33;;;74.43;;
9807;SDS011;4943;52.550;13.462;2023-04-08T07:00:17;142.63;;;73.23;;
9807;SDS011;4943;52.550;13.462;2023-04-08T07:02:45;147.67;;;75.60;;
9807;SDS011;4943;52.550;13.462;2023-04-08T07:05:13;160.40;;;75.03;;
9807;SDS011;4943;52.550;13.462;2023-04-08T07:07:43;159.70;;;76.67;;
9807;SDS011;4943;52.550;13.462;2023-04-08T07:10:11;159.90;;;74.43;;
9807;SDS011;4943;52.550;13.462;2023-04-08T07:12:39;169.03;;;78.83;;
9807;SDS011;4943;52.550;13.462;2023-04-08T07:15:07;191.03;;;81.73;;
9807;SDS011;4943;52.550;13.462;2023-04-08T07:17:36;199.63;;;86.67;;
9807;SDS011;4943;52.550;13.462;2023-04-08T07:20:05;190.50;;;88.27;;
9807;SDS011;4943;52.550;13.462;2023-04-08T07:22:34;180.83;;;84.87;;
9807;SDS011;4943;52.550;13.462;2023-04-08T07:25:03;181.67;;;88.80;;
9807;SDS011;4943;52.550;13.462;2023-04-08T07:27:32;180.67;;;86.73;;
9807;SDS011;4943;52.550;13.462;2023-04-08T07:30:00;190.27;;;90.20;;
9807;SDS011;4943;52.550;13.462;2023-04-08T07:32:28;194.43;;;89.33;;
9807;SDS011;4943;52.550;13.462;2023-04-08T07:34:57;207.93;;;89.03;;
9807;SDS011;4943;52.550;13.462;2023-04-08T07:37:26;221.20;;;91.90;;
9807;SDS011;4943;52.550;13.462;2023-04-08T07:39:54;218.53;;;94.00;;
9807;SDS011;4943;52.550;13.462;2023-04-08T07:42:23;228.33;;;96.03;;
9807;SDS011;4943;52.550;13.462;2023-04-08T07:44:52;227.67;;;95.10;;
9807;SDS011;4943;52.550;13.462;2023-04-08T07:47:20;160.03;;;86.63;;
9807;SDS011;4943;52.550;13.462;2023-04-08T07:49:48;156.87;;;86.00;;
9807;SDS011;4943;52.550;13.462;2023-04-08T07:52:16;162.97;;;87.77;;
9807;SDS011;4943;52.550;13.462;2023-04-08T07:54:44;159.43;;;88.67;;
9807;SDS011;4943;52.550;13.462;2023-04-08T07:57:12;142.13;;;84.07;;
9807;SDS011;4943;52.550;13.462;2023-04-08T07:59:42;142.00;;;80.90;;
9807;SDS011;4943;52.550;13.462;2023-04-08T08:02:11;140.90;;;84.77;;
9807;SDS011;4943;52.550;13.462;2023-04-08T08:04:39;146.63;;;87.00;;
9807;SDS011;4943;52.550;13.462;2023-04-08T08:07:08;143.03;;;90.30;;
9807;SDS011;4943;52.550;13.462;2023-04-08T08:09:36;169.93;;;93.60;;
9807;SDS011;4943;52.550;13.462;2023-04-08T08:12:04;172.47;;;98.00;;
9807;SDS011;4943;52.550;13.462;2023-04-08T08:14:32;164.33;;;94.80;;
9807;SDS011;4943;52.550;13.462;2023-04-08T08:17:02;170.80;;;99.60;;
9807;SDS011;4943;52.550;13.462;2023-04-08T08:19:30;161.53;;;99.57;;
9807;SDS011;4943;52.550;13.462;2023-04-08T08:21:58;171.37;;;102.03;;
9807;SDS011;4943;52.550;13.462;2023-04-08T08:24:26;185.93;;;107.90;;
9807;SDS011;4943;52.550;13.462;2023-04-08T08:26:54;208.50;;;112.77;;
9807;SDS011;4943;52.550;13.462;2023-04-08T08:29:22;209.33;;;115.13;;
9807;SDS011;4943;52.550;13.462;2023-04-08T08:31:50;211.00;;;115.87;;
9807;SDS011;4943;52.550;13.462;2023-04-08T08:34:19;216.60;;;115.37;;
9807;SDS011;4943;52.550;13.462;2023-04-08T08:36:47;208.03;;;117.17;;
9807;SDS011;4943;52.550;13.462;2023-04-08T08:39:15;220.67;;;120.47;;
9807;SDS011;4943;52.550;13.462;2023-04-08T08:41:43;221.67;;;119.60;;
9807;SDS011;4943;52.550;13.462;2023-04-08T08:44:11;229.17;;;119.70;;
9807;SDS011;4943;52.550;13.462;2023-04-08T08:46:40;221.47;;;118.30;;
9807;SDS011;4943;52.550;13.462;2023-04-08T08:49:11;238.67;;;122.70;;
9807;SDS011;4943;52.550;13.462;2023-04-08T08:51:40;244.13;;;128.23;;
9807;SDS011;4943;52.550;13.462;2023-04-08T08:54:11;238.17;;;123.43;;
9807;SDS011;4943;52.550;13.462;2023-04-08T08:56:41;221.87;;;126.13;;
9807;SDS011;4943;52.550;13.462;2023-04-08T08:59:09;238.73;;;124.90;;
9807;SDS011;4943;52.550;13.462;2023-04-08T09:01:37;233.50;;;128.60;;
9807;SDS011;4943;52.550;13.462;2023-04-08T09:04:08;226.17;;;130.07;;
9807;SDS011;4943;52.550;13.462;2023-04-08T09:06:37;230.03;;;132.20;;
9807;SDS011;4943;52.550;13.462;2023-04-08T09:09:07;257.63;;;135.17;;
9807;SDS011;4943;52.550;13.462;2023-04-08T09:11:37;237.90;;;132.53;;
9807;SDS011;4943;52.550;13.462;2023-04-08T09:14:16;250.30;;;134.50;;
9807;SDS011;4943;52.550;13.462;2023-04-08T09:16:48;257.13;;;132.23;;
9807;SDS011;4943;52.550;13.462;2023-04-08T09:19:16;310.87;;;137.77;;
9807;SDS011;4943;52.550;13.462;2023-04-08T09:21:46;309.47;;;136.00;;
9807;SDS011;4943;52.550;13.462;2023-04-08T09:24:33;313.57;;;136.03;;
9807;SDS011;4943;52.550;13.462;2023-04-08T09:27:02;314.93;;;133.90;;
9807;SDS011;4943;52.550;13.462;2023-04-08T09:29:31;317.43;;;134.70;;
9807;SDS011;4943;52.550;13.462;2023-04-08T09:32:03;315.83;;;131.37;;
9807;SDS011;4943;52.550;13.462;2023-04-08T09:34:32;303.43;;;118.73;;
9807;SDS011;4943;52.550;13.462;2023-04-08T09:37:00;310.17;;;127.23;;
9807;SDS011;4943;52.550;13.462;2023-04-08T09:39:28;299.77;;;120.20;;
9807;SDS011;4943;52.550;13.462;2023-04-08T09:41:58;305.13;;;126.10;;
9807;SDS011;4943;52.550;13.462;2023-04-08T09:44:28;307.43;;;123.97;;
9807;SDS011;4943;52.550;13.462;2023-04-08T09:47:00;298.63;;;123.53;;
9807;SDS011;4943;52.550;13.462;2023-04-08T09:49:37;303.57;;;122.53;;
9807;SDS011;4943;52.550;13.462;2023-04-08T09:52:10;306.30;;;121.47;;
9807;SDS011;4943;52.550;13.462;2023-04-08T09:54:43;307.60;;;124.37;;
9807;SDS011;4943;52.550;13.462;2023-04-08T09:57:20;303.47;;;123.93;;
9807;SDS011;4943;52.550;13.462;2023-04-08T09:59:56;306.87;;;127.17;;
9807;SDS011;4943;52.550;13.462;2023-04-08T10:02:31;215.03;;;124.73;;
9807;SDS011;4943;52.550;13.462;2023-04-08T10:05:05;204.37;;;127.30;;
9807;SDS011;4943;52.550;13.462;2023-04-08T10:07:35;236.00;;;144.63;;
9807;SDS011;4943;52.550;13.462;2023-04-08T10:10:04;259.10;;;151.93;;
9807;SDS011;4943;52.550;13.462;2023-04-08T10:12:35;213.57;;;154.23;;
9807;SDS011;4943;52.550;13.462;2023-04-08T10:17:51;224.30;;;166.87;;
9807;SDS011;4943;52.550;13.462;2023-04-08T10:23:08;191.40;;;167.43;;
9807;SDS011;4943;52.550;13.462;2023-04-08T10:25:38;197.00;;;173.00;;
9807;SDS011;4943;52.550;13.462;2023-04-08T10:31:00;155.07;;;140.00;;
9807;SDS011;4943;52.550;13.462;2023-04-08T10:33:32;24.42;;;19.02;;
9807;SDS011;4943;52.550;13.462;2023-04-08T10:36:09;25.65;;;17.08;;
9807;SDS011;4943;52.550;13.462;2023-04-08T10:38:38;46.38;;;27.10;;
9807;SDS011;4943;52.550;13.462;2023-04-08T10:41:08;70.20;;;54.45;;
9807;SDS011;4943;52.550;13.462;2023-04-08T10:43:38;74.38;;;48.88;;
9807;SDS011;4943;52.550;13.462;2023-04-08T10:46:08;80.60;;;56.15;;
9807;SDS011;4943;52.550;13.462;2023-04-08T10:48:37;87.70;;;58.78;;
9807;SDS011;4943;52.550;13.462;2023-04-08T10:51:05;90.57;;;64.95;;
9807;SDS011;4943;52.550;13.462;2023-04-08T10:53:33;81.68;;;60.58;;
9807;SDS011;4943;52.550;13.462;2023-04-08T10:56:02;80.97;;;66.65;;
9807;SDS011;4943;52.550;13.462;2023-04-08T10:58:31;102.05;;;75.43;;
9807;SDS011;4943;52.550;13.462;2023-04-08T11:01:03;93.18;;;82.75;;
9807;SDS011;4943;52.550;13.462;2023-04-08T11:03:34;165.38;;;147.55;;
9807;SDS011;4943;52.550;13.462;2023-04-08T11:06:03;175.15;;;156.10;;
9807;SDS011;4943;52.550;13.462;2023-04-08T11:08:32;204.43;;;177.52;;
9807;SDS011;4943;52.550;13.462;2023-04-08T11:11:02;201.60;;;177.02;;
9807;SDS011;4943;52.550;13.462;2023-04-08T11:13:34;286.13;;;216.77;;
9807;SDS011;4943;52.550;13.462;2023-04-08T11:16:05;312.97;;;211.20;;
9807;SDS011;4943;52.550;13.462;2023-04-08T11:18:43;148.55;;;133.00;;
9807;SDS011;4943;52.550;13.462;2023-04-08T11:21:19;177.85;;;159.23;;
9807;SDS011;4943;52.550;13.462;2023-04-08T11:23:49;174.82;;;159.10;;
9807;SDS011;4943;52.550;13.462;2023-04-08T11:26:19;152.10;;;138.52;;
9807;SDS011;4943;52.550;13.462;2023-04-08T11:28:47;90.43;;;82.68;;
9807;SDS011;4943;52.550;13.462;2023-04-08T11:31:18;109.18;;;99.80;;
9807;SDS011;4943;52.550;13.462;2023-04-08T11:33:51;92.85;;;85.30;;
9807;SDS011;4943;52.550;13.462;2023-04-08T11:36:20;77.57;;;70.88;;
9807;SDS011;4943;52.550;13.462;2023-04-08T11:38:48;29.05;;;26.15;;
9807;SDS011;4943;52.550;13.462;2023-04-08T11:41:16;23.55;;;20.30;;
9807;SDS011;4943;52.550;13.462;2023-04-08T11:43:51;18.83;;;16.90;;
9807;SDS011;4943;52.550;13.462;2023-04-08T11:46:24;17.27;;;14.07;;
9807;SDS011;4943;52.550;13.462;2023-04-08T11:48:56;15.80;;;12.55;;
9807;SDS011;4943;52.550;13.462;2023-04-08T11:51:25;14.73;;;13.10;;
9807;SDS011;4943;52.550;13.462;2023-04-08T11:53:53;13.75;;;8.68;;
9807;SDS011;4943;52.550;13.462;2023-04-08T11:56:22;14.05;;;11.77;;
9807;SDS011;4943;52.550;13.462;2023-04-08T11:58:51;12.77;;;8.25;;
9807;SDS011;4943;52.550;13.462;2023-04-08T12:01:19;15.57;;;8.73;;
9807;SDS011;4943;52.550;13.462;2023-04-08T12:03:58;14.40;;;8.35;;
9807;SDS011;4943;52.550;13.462;2023-04-08T12:06:29;12.18;;;8.07;;
9807;SDS011;4943;52.550;13.462;2023-04-08T12:08:57;12.57;;;7.95;;
9807;SDS011;4943;52.550;13.462;2023-04-08T12:11:25;10.23;;;7.05;;
9807;SDS011;4943;52.550;13.462;2023-04-08T12:13:53;11.00;;;7.85;;
9807;SDS011;4943;52.550;13.462;2023-04-08T12:16:22;28.58;;;14.70;;
9807;SDS011;4943;52.550;13.462;2023-04-08T12:18:50;10.93;;;7.40;;
9807;SDS011;4943;52.550;13.462;2023-04-08T12:21:19;12.07;;;7.15;;
9807;SDS011;4943;52.550;13.462;2023-04-08T12:23:48;12.75;;;6.85;;
9807;SDS011;4943;52.550;13.462;2023-04-08T12:26:16;11.05;;;7.03;;
9807;SDS011;4943;52.550;13.462;2023-04-08T12:28:44;8.68;;;5.82;;
9807;SDS011;4943;52.550;13.462;2023-04-08T12:31:12;8.25;;;5.60;;
9807;SDS011;4943;52.550;13.462;2023-04-08T12:33:41;7.32;;;5.63;;
9807;SDS011;4943;52.550;13.462;2023-04-08T12:36:09;9.05;;;6.25;;
9807;SDS011;4943;52.550;13.462;2023-04-08T12:38:40;9.30;;;6.80;;
9807;SDS011;4943;52.550;13.462;2023-04-08T12:41:08;9.88;;;5.97;;
9807;SDS011;4943;52.550;13.462;2023-04-08T12:43:36;11.40;;;7.20;;
9807;SDS011;4943;52.550;13.462;2023-04-08T12:46:04;10.50;;;7.43;;
9807;SDS011;4943;52.550;13.462;2023-04-08T12:48:33;9.77;;;6.82;;
9807;SDS011;4943;52.550;13.462;2023-04-08T12:51:01;11.80;;;7.15;;
9807;SDS011;4943;52.550;13.462;2023-04-08T12:53:29;10.93;;;6.38;;
9807;SDS011;4943;52.550;13.462;2023-04-08T12:55:59;8.13;;;6.00;;
9807;SDS011;4943;52.550;13.462;2023-04-08T12:58:28;10.27;;;6.20;;
9807;SDS011;4943;52.550;13.462;2023-04-08T13:00:56;10.43;;;6.75;;
9807;SDS011;4943;52.550;13.462;2023-04-08T13:03:24;9.18;;;6.40;;
9807;SDS011;4943;52.550;13.462;2023-04-08T13:05:54;8.15;;;6.07;;
9807;SDS011;4943;52.550;13.462;2023-04-08T13:08:24;11.85;;;6.10;;
9807;SDS011;4943;52.550;13.462;2023-04-08T13:10:52;8.30;;;5.90;;
9807;SDS011;4943;52.550;13.462;2023-04-08T13:13:22;8.02;;;5.70;;
9807;SDS011;4943;52.550;13.462;2023-04-08T13:15:50;10.30;;;6.90;;
9807;SDS011;4943;52.550;13.462;2023-04-08T13:18:18;8.48;;;5.78;;
9807;SDS011;4943;52.550;13.462;2023-04-08T13:20:46;5.40;;;4.35;;
9807;SDS011;4943;52.550;13.462;2023-04-08T13:23:14;6.90;;;5.05;;
9807;SDS011;4943;52.550;13.462;2023-04-08T13:25:43;6.55;;;5.15;;
9807;SDS011;4943;52.550;13.462;2023-04-08T13:28:11;8.80;;;5.22;;
9807;SDS011;4943;52.550;13.462;2023-04-08T13:30:41;8.98;;;5.13;;
9807;SDS011;4943;52.550;13.462;2023-04-08T13:33:09;8.88;;;5.38;;
9807;SDS011;4943;52.550;13.462;2023-04-08T13:35:37;7.50;;;5.47;;
9807;SDS011;4943;52.550;13.462;2023-04-08T13:38:05;7.50;;;5.30;;
9807;SDS011;4943;52.550;13.462;2023-04-08T13:40:33;6.78;;;4.80;;
9807;SDS011;4943;52.550;13.462;2023-04-08T13:43:02;8.20;;;5.10;;
9807;SDS011;4943;52.550;13.462;2023-04-08T13:45:30;9.18;;;6.00;;
9807;SDS011;4943;52.550;13.462;2023-04-08T13:47:59;6.72;;;5.55;;
9807;SDS011;4943;52.550;13.462;2023-04-08T13:50:27;9.95;;;5.88;;
9807;SDS011;4943;52.550;13.462;2023-04-08T13:52:56;8.15;;;6.18;;
9807;SDS011;4943;52.550;13.462;2023-04-08T13:55:25;8.05;;;6.05;;
9807;SDS011;4943;52.550;13.462;2023-04-08T13:57:53;8.30;;;6.22;;
9807;SDS011;4943;52.550;13.462;2023-04-08T14:00:21;8.52;;;6.80;;
9807;SDS011;4943;52.550;13.462;2023-04-08T14:02:50;10.25;;;6.82;;
9807;SDS011;4943;52.550;13.462;2023-04-08T14:05:20;10.98;;;6.93;;
9807;SDS011;4943;52.550;13.462;2023-04-08T14:07:48;7.20;;;5.82;;
9807;SDS011;4943;52.550;13.462;2023-04-08T14:10:16;6.43;;;4.88;;
9807;SDS011;4943;52.550;13.462;2023-04-08T14:12:44;10.07;;;6.72;;
9807;SDS011;4943;52.550;13.462;2023-04-08T14:15:12;9.70;;;6.00;;
9807;SDS011;4943;52.550;13.462;2023-04-08T14:17:40;9.77;;;5.60;;
9807;SDS011;4943;52.550;13.462;2023-04-08T14:20:09;7.55;;;5.55;;
9807;SDS011;4943;52.550;13.462;2023-04-08T14:22:38;7.28;;;5.13;;
9807;SDS011;4943;52.550;13.462;2023-04-08T14:25:07;7.40;;;4.95;;
9807;SDS011;4943;52.550;13.462;2023-04-08T14:27:35;7.88;;;5.50;;
9807;SDS011;4943;52.550;13.462;2023-04-08T14:30:22;8.40;;;5.60;;
9807;SDS011;4943;52.550;13.462;2023-04-08T14:32:50;8.50;;;5.63;;
9807;SDS011;4943;52.550;13.462;2023-04-08T14:35:18;6.82;;;4.65;;
9807;SDS011;4943;52.550;13.462;2023-04-08T14:37:48;8.18;;;5.70;;
9807;SDS011;4943;52.550;13.462;2023-04-08T14:40:16;7.03;;;5.60;;
9807;SDS011;4943;52.550;13.462;2023-04-08T14:42:44;8.48;;;5.85;;
9807;SDS011;4943;52.550;13.462;2023-04-08T14:45:15;8.25;;;6.20;;
9807;SDS011;4943;52.550;13.462;2023-04-08T14:47:43;8.02;;;5.28;;
9807;SDS011;4943;52.550;13.462;2023-04-08T14:50:11;7.35;;;5.90;;
9807;SDS011;4943;52.550;13.462;2023-04-08T14:52:39;8.23;;;6.07;;